This is the latest recevied weather packets stored in our database for station/object W1WRA. If no packets are shown the sender has not sent any weather packets the latest 10 day(s).
| Time | Temp. | Humidity | Pressure | Rain* | Wind** | Luminosity | Snow |
|---|---|---|---|---|---|---|---|
| 1777450516 | 6.67° C | 72% | 1017.8 hPa | 0 mm | - | 0 W/m² | - |
| 1777447517 | 7.22° C | 71% | 1018.8 hPa | 0 mm | - | 0 W/m² | - |
| 1777445717 | 7.22° C | 70% | 1019.5 hPa | 0 mm | - | 0 W/m² | - |
| 1777445117 | 7.22° C | 70% | 1019.2 hPa | 0 mm | - | 0 W/m² | - |
| 1777443918 | 7.22° C | 71% | 1019.5 hPa | 0 mm | - | 0 W/m² | - |
| 1777443318 | 7.22° C | 70% | 1019.5 hPa | 0 mm | - | 0 W/m² | - |
| 1777424717 | 7.78° C | 50% | 1020.5 hPa | 0 mm | - | 0 W/m² | - |
| 1777420517 | 9.44° C | 26% | 1020 hPa | 0 mm | - | 1 W/m² | - |
| 1777419918 | 10° C | 25% | 1019.9 hPa | 0 mm | - | 2 W/m² | - |
| 1777419318 | 10.56° C | 28% | 1019.9 hPa | 0 mm | - | 4 W/m² | - |
| 1777410916 | 14.44° C | 38% | 1020.4 hPa | 0 mm | - | 82 W/m² | - |
| 1777409117 | 15.56° C | 42% | 1020.2 hPa | 0 mm | - | 76 W/m² | - |
| 1777406118 | 16.67° C | 43% | 1020.7 hPa | 0 mm | - | 77 W/m² | - |
| 1777400136 | 19.44° C | 40% | 1021.2 hPa | 0 mm | - | 845 W/m² | - |
| 1777398916 | 19.44° C | 40% | 1021.3 hPa | 0 mm | - | 889 W/m² | - |
| 1777391116 | 16.67° C | 44% | 1022.3 hPa | 0 mm | - | 879 W/m² | - |
| 1777390515 | 16.11° C | 43% | 1022.4 hPa | 0 mm | - | 861 W/m² | - |
| 1777388116 | 13.89° C | 49% | 1022.9 hPa | 0 mm | - | 148 W/m² | - |
| 1777385737 | 12.78° C | 50% | 1022.8 hPa | 0 mm | - | 276 W/m² | - |
| 1777382717 | 11.11° C | 57% | 1023 hPa | 0 mm | - | 536 W/m² | - |
| 1777372517 | 3.89° C | 87% | 1023.4 hPa | 0 mm | - | 17 W/m² | - |
| 1777365936 | 3.89° C | 85% | 1022.9 hPa | 0 mm | - | 0 W/m² | - |
| 1777364716 | 4.44° C | 84% | 1022.8 hPa | 0 mm | - | 0 W/m² | - |
| 1777364116 | 4.44° C | 83% | 1022.7 hPa | 0 mm | - | 0 W/m² | - |
| 1777361137 | 5° C | 81% | 1022.7 hPa | 0 mm | - | 0 W/m² | - |
* Rain latest hour (hover to see other rain measurements)
** Current wind speed in m/s (hover to see current wind gust speed)